createdAt,value
2023-02-11T00:02:07.100Z,99.90
2023-02-11T00:07:09.070Z,99.90
2023-02-11T00:12:10.940Z,99.90
2023-02-11T00:17:14.194Z,99.90
2023-02-11T00:22:16.471Z,99.90
2023-02-11T00:27:18.803Z,99.90
2023-02-11T00:32:23.423Z,99.90
2023-02-11T00:37:25.458Z,99.90
2023-02-11T00:42:27.433Z,99.90
2023-02-11T00:47:30.984Z,99.90
2023-02-11T00:52:33.984Z,99.90
2023-02-11T00:57:36.142Z,99.90
2023-02-11T01:02:39.850Z,99.90
2023-02-11T01:07:42.309Z,99.90
2023-02-11T01:12:44.383Z,99.90
2023-02-11T01:17:47.866Z,99.90
2023-02-11T01:22:49.919Z,99.90
2023-02-11T01:27:51.996Z,99.90
2023-02-11T01:32:55.420Z,99.90
2023-02-11T01:37:57.501Z,99.90
2023-02-11T01:42:59.359Z,99.90
2023-02-11T01:48:03.056Z,99.90
2023-02-11T01:53:19.255Z,99.90
2023-02-11T01:58:21.393Z,99.90
2023-02-11T02:03:26.364Z,99.90
2023-02-11T02:08:33.578Z,99.90
2023-02-11T02:13:37.313Z,99.90
2023-02-11T02:18:51.331Z,99.90
2023-02-11T02:24:26.812Z,99.90
2023-02-11T02:30:10.615Z,99.90
2023-02-11T02:35:25.953Z,99.90
2023-02-11T02:40:34.644Z,99.90
2023-02-11T02:45:37.580Z,99.90
2023-02-11T02:50:41.365Z,99.90
2023-02-11T02:55:52.447Z,99.90
2023-02-11T03:01:05.027Z,99.90
2023-02-11T03:06:14.668Z,99.90
2023-02-11T03:11:19.176Z,99.90
2023-02-11T03:16:24.707Z,99.90
2023-02-11T03:21:29.689Z,99.90
2023-02-11T03:26:34.311Z,99.90
2023-02-11T03:31:41.982Z,99.90
2023-02-11T03:36:49.935Z,99.90
2023-02-11T03:41:53.232Z,99.90
2023-02-11T03:46:56.647Z,99.90
2023-02-11T03:52:01.942Z,99.90
2023-02-11T03:57:04.780Z,99.90
2023-02-11T04:02:07.201Z,99.90
2023-02-11T04:07:12.586Z,99.90
2023-02-11T04:12:14.681Z,99.90
2023-02-11T04:17:16.576Z,99.90
2023-02-11T04:22:20.070Z,99.90
2023-02-11T04:27:22.450Z,99.90
2023-02-11T04:32:24.527Z,99.90
2023-02-11T04:37:27.781Z,99.90
2023-02-11T04:42:29.955Z,99.90
2023-02-11T04:47:32.200Z,99.90
2023-02-11T04:52:35.516Z,99.90
2023-02-11T04:57:38.778Z,99.90
2023-02-11T05:02:42.118Z,99.90
2023-02-11T05:07:45.938Z,99.90
2023-02-11T05:12:50.350Z,99.90
2023-02-11T05:17:52.304Z,99.90
2023-02-11T05:22:56.190Z,99.90
2023-02-11T05:27:58.649Z,99.90
2023-02-11T05:33:00.956Z,99.90
2023-02-11T05:38:04.719Z,99.90
2023-02-11T05:43:06.923Z,99.90
2023-02-11T05:48:09.301Z,99.90
2023-02-11T05:53:13.060Z,99.90
2023-02-11T05:58:15.664Z,99.90
2023-02-11T06:03:18.057Z,99.90
2023-02-11T06:08:21.598Z,99.90
2023-02-11T06:13:24.558Z,99.90
2023-02-11T06:18:26.899Z,99.90
2023-02-11T06:23:30.961Z,99.90
2023-02-11T06:28:33.663Z,99.90
2023-02-11T06:33:36.854Z,99.90
2023-02-11T06:38:40.439Z,99.90
2023-02-11T06:43:43.215Z,99.90
2023-02-11T06:48:45.414Z,99.90
2023-02-11T06:53:49.557Z,99.90
2023-02-11T06:58:56.013Z,99.90
2023-02-11T07:03:58.412Z,99.90
2023-02-11T07:09:02.060Z,99.90
2023-02-11T07:14:05.917Z,99.90
2023-02-11T07:19:07.969Z,99.90
2023-02-11T07:24:11.987Z,99.90
2023-02-11T07:29:13.961Z,99.90
2023-02-11T07:34:15.924Z,99.90
2023-02-11T07:39:22.057Z,99.90
2023-02-11T07:44:25.183Z,99.90
2023-02-11T07:49:27.581Z,99.90
2023-02-11T07:54:30.960Z,99.90
2023-02-11T07:59:33.564Z,99.90
2023-02-11T08:04:35.744Z,99.90
2023-02-11T08:09:39.634Z,99.90
2023-02-11T08:14:41.947Z,99.90
2023-02-11T08:19:44.819Z,99.90
2023-02-11T08:24:50.154Z,99.90
2023-02-11T08:29:54.436Z,99.90
2023-02-11T08:34:56.425Z,99.90
2023-02-11T08:40:00.536Z,99.90
2023-02-11T08:45:02.988Z,99.90
2023-02-11T08:50:05.571Z,99.90
2023-02-11T08:55:09.453Z,99.90
2023-02-11T09:00:12.966Z,99.90
2023-02-11T09:05:15.068Z,99.90
2023-02-11T09:10:19.011Z,99.90
2023-02-11T09:15:21.370Z,99.90
2023-02-11T09:20:23.788Z,99.90
2023-02-11T09:25:27.408Z,99.90
2023-02-11T09:30:29.808Z,99.90
2023-02-11T09:35:32.196Z,99.90
2023-02-11T09:40:35.574Z,99.90
2023-02-11T09:45:37.829Z,99.90
2023-02-11T09:50:43.947Z,99.90
2023-02-11T09:55:49.777Z,99.90
2023-02-11T10:00:59.365Z,99.90
2023-02-11T10:06:15.898Z,99.90
2023-02-11T10:11:31.838Z,99.90
2023-02-11T10:16:49.728Z,99.90
2023-02-11T10:21:59.690Z,99.90
2023-02-11T10:27:08.009Z,99.90
2023-02-11T10:32:25.595Z,99.90
2023-02-11T10:37:27.849Z,99.90
2023-02-11T10:42:32.006Z,99.90
2023-02-11T10:47:39.779Z,99.90
2023-02-11T10:52:42.170Z,99.90
2023-02-11T10:57:55.006Z,99.90
2023-02-11T11:03:00.280Z,99.90
2023-02-11T11:08:06.076Z,99.90
2023-02-11T11:13:28.784Z,99.90
2023-02-11T11:18:31.165Z,99.90
2023-02-11T11:23:34.109Z,99.90
2023-02-11T11:28:42.107Z,99.90
2023-02-11T11:33:45.785Z,99.90
2023-02-11T11:38:53.995Z,99.90
2023-02-11T11:44:03.325Z,99.90
2023-02-11T11:49:21.876Z,99.90
2023-02-11T11:54:26.447Z,99.90
2023-02-11T11:59:30.553Z,99.90
2023-02-11T12:04:54.709Z,99.90
2023-02-11T12:10:22.610Z,99.90
2023-02-11T12:15:36.290Z,99.90
2023-02-11T12:20:51.689Z,99.90
2023-02-11T12:26:02.237Z,99.90
2023-02-11T12:31:19.854Z,99.90
2023-02-11T12:36:38.875Z,99.90
2023-02-11T12:42:14.781Z,99.90
2023-02-11T12:47:30.148Z,99.90
2023-02-11T12:52:50.879Z,99.90
2023-02-11T12:57:55.872Z,96.40
2023-02-11T13:03:05.453Z,93.00
2023-02-11T13:08:14.555Z,94.90
2023-02-11T13:13:24.153Z,97.10
2023-02-11T13:18:49.794Z,97.80
2023-02-11T13:24:00.600Z,97.30
2023-02-11T13:29:21.880Z,95.50
2023-02-11T13:34:59.734Z,95.10
2023-02-11T13:40:04.806Z,93.10
2023-02-11T13:45:20.463Z,92.60
2023-02-11T13:50:26.815Z,91.60
2023-02-11T13:55:30.656Z,90.00
2023-02-11T14:00:52.407Z,88.40
2023-02-11T14:06:33.963Z,85.10
2023-02-11T14:11:49.121Z,81.80
2023-02-11T14:17:34.866Z,81.70
2023-02-11T14:22:49.813Z,79.90
2023-02-11T14:27:57.377Z,80.20
2023-02-11T14:33:40.930Z,79.90
2023-02-11T14:39:02.323Z,79.50
2023-02-11T14:44:07.746Z,78.00
2023-02-11T14:49:20.991Z,78.70
2023-02-11T14:54:29.403Z,79.30
2023-02-11T14:59:32.894Z,81.10
2023-02-11T15:04:36.969Z,82.50
2023-02-11T15:09:44.632Z,84.10
2023-02-11T15:14:50.178Z,85.60
2023-02-11T15:19:56.781Z,87.10
2023-02-11T15:25:11.289Z,86.60
2023-02-11T15:30:27.374Z,88.60
2023-02-11T15:35:32.630Z,90.00
2023-02-11T15:40:37.919Z,91.60
2023-02-11T15:45:45.264Z,93.50
2023-02-11T15:50:55.081Z,95.30
2023-02-11T15:56:13.439Z,97.40
2023-02-11T16:01:26.898Z,97.20
2023-02-11T16:06:38.575Z,97.70
2023-02-11T16:12:00.804Z,99.10
2023-02-11T16:17:10.234Z,99.40
2023-02-11T16:22:17.740Z,99.20
2023-02-11T16:27:25.717Z,99.90
2023-02-11T16:32:33.407Z,99.90
2023-02-11T16:37:39.997Z,99.90
2023-02-11T16:42:43.735Z,99.90
2023-02-11T16:47:49.098Z,99.90
2023-02-11T16:52:53.028Z,99.90
2023-02-11T16:57:56.185Z,99.90
2023-02-11T17:03:01.249Z,99.90
2023-02-11T17:08:07.069Z,99.90
2023-02-11T17:13:09.840Z,99.90
2023-02-11T17:18:15.529Z,99.90
2023-02-11T17:23:19.742Z,99.90
2023-02-11T17:28:26.579Z,99.90
2023-02-11T17:33:34.586Z,99.90
2023-02-11T17:38:41.617Z,99.90
2023-02-11T17:43:48.829Z,99.90
2023-02-11T17:48:54.159Z,99.90
2023-02-11T17:54:01.697Z,99.90
2023-02-11T17:59:05.600Z,99.90
2023-02-11T18:04:17.870Z,99.90
2023-02-11T18:09:25.275Z,99.90
2023-02-11T18:14:29.279Z,99.90
2023-02-11T18:19:36.659Z,99.90
2023-02-11T18:24:40.317Z,99.90
2023-02-11T18:29:46.076Z,99.90
2023-02-11T18:34:50.797Z,99.90
2023-02-11T18:39:55.185Z,99.90
2023-02-11T18:44:58.204Z,99.90
2023-02-11T18:50:05.224Z,99.90
2023-02-11T18:55:13.691Z,99.90
2023-02-11T19:00:18.257Z,99.90
2023-02-11T19:05:23.515Z,99.90
2023-02-11T19:10:28.049Z,99.90
2023-02-11T19:15:30.905Z,99.90
2023-02-11T19:20:36.010Z,99.90
2023-02-11T19:25:40.828Z,99.90
2023-02-11T19:30:45.965Z,99.90
2023-02-11T19:35:52.529Z,99.90
2023-02-11T19:40:58.814Z,99.90
2023-02-11T19:46:04.635Z,99.90
2023-02-11T19:51:13.365Z,99.90
2023-02-11T19:56:19.795Z,99.90
2023-02-11T20:01:26.408Z,99.90
2023-02-11T20:06:33.464Z,99.90
2023-02-11T20:11:38.469Z,99.90
2023-02-11T20:16:48.545Z,99.90
2023-02-11T20:21:57.154Z,99.90
2023-02-11T20:27:02.115Z,99.90
2023-02-11T20:32:05.819Z,99.90
2023-02-11T20:37:22.284Z,99.90
2023-02-11T20:42:26.472Z,99.90
2023-02-11T20:47:29.964Z,99.90
2023-02-11T20:52:38.182Z,99.90
2023-02-11T20:57:41.452Z,99.90
2023-02-11T21:02:47.296Z,99.90
2023-02-11T21:07:52.571Z,99.90
2023-02-11T21:12:56.777Z,99.90
2023-02-11T21:18:00.489Z,99.90
2023-02-11T21:23:06.590Z,99.90
2023-02-11T21:28:10.589Z,99.90
2023-02-11T21:33:14.387Z,99.90
2023-02-11T21:38:19.470Z,99.90
2023-02-11T21:43:25.614Z,99.90
2023-02-11T21:48:29.627Z,99.90
2023-02-11T21:53:34.667Z,99.90
2023-02-11T21:58:38.205Z,99.90
2023-02-11T22:03:41.878Z,99.90
2023-02-11T22:08:48.219Z,99.90
2023-02-11T22:13:54.832Z,99.90
2023-02-11T22:18:59.402Z,99.90
2023-02-11T22:24:03.358Z,99.90
2023-02-11T22:29:06.368Z,99.90
2023-02-11T22:34:09.155Z,99.90
2023-02-11T22:39:14.725Z,99.90
2023-02-11T22:44:18.614Z,99.90
2023-02-11T22:49:22.539Z,99.90
2023-02-11T22:54:26.363Z,99.90
2023-02-11T22:59:28.791Z,99.90
2023-02-11T23:04:31.171Z,99.90
2023-02-11T23:09:34.601Z,99.90
2023-02-11T23:14:36.801Z,99.90
2023-02-11T23:19:39.003Z,99.90
2023-02-11T23:24:42.507Z,99.90
2023-02-11T23:29:44.560Z,99.90
2023-02-11T23:34:46.729Z,99.90
2023-02-11T23:39:50.428Z,99.90
2023-02-11T23:44:52.602Z,99.90
2023-02-11T23:49:54.776Z,99.90
2023-02-11T23:54:58.569Z,99.90
